Boise City, OK (73933)

8:31 AM CDT on September 22, 2014 (GMT -0500)
Clayton Municipal | Change Station
CLOSE
Current Station
Airport
Location: Clayton,
Elevation: 4970 ft
Nearby Weather Stations

Elev 4970 ft 36.45 °N, 103.15 °W | Updated 36 minutes ago

Overcast
Overcast
60 °F
Feels Like 60 °F
N
14
Wind Variable Wind from SSE

Today
High -- | Low -- °F
--% Chance of Precip.
Yesterday
High -- | Low -- °F
Precip. -- in
7:37 AM 7:46 PM
Waning Crescent, 3% visible
Pressure 30.21 in
Visibility 10.0 miles
Clouds Overcast 1200 ft
Dew Point 53 °F
Humidity 78%
Rainfall 0.00 in
Snow Depth Not available.
UV 0 out of 12
Pollen 8.70 out of 12
Air Quality Not available.
Flu Activity Not available.
METAR KCAO 221255Z AUTO 16012KT 10SM OVC012 16/12 A3034 RMK AO2 SLP228 T01560117

More Conditions Fewer Conditions

Pressure 30.21 in
Visibility 10.0 miles
Clouds Overcast 1200 ft
Dew Point 53 °F
Humidity 78%
Rainfall 0.00 in
Snow Depth Not available.
UV 0 out of 12
Pollen 8.70 out of 12
Air Quality Not available.
Flu Activity Not available.
METAR KCAO 221255Z AUTO 16012KT 10SM OVC012 16/12 A3034 RMK AO2 SLP228 T01560117

More Conditions Fewer Conditions

10-Day Weather Forecast

Almanac

Astronomy

Sep. 22, 2014 Rise Set
Actual Time 7:37 AM CDT 7:46 PM CDT
Civil Twilight 7:12 AM CDT 8:12 PM CDT
Nautical Twilight 6:41 AM CDT 8:42 PM CDT
Astronomical Twilight 6:11 AM CDT 9:13 PM CDT
Moon 6:10 AM CDT 6:54 PM CDT
Length of Visible Light 13h 00m
Length of Day
12h 08m
Tomorrow will be 2m 20s shorter.
Waning Crescent, 3% of the Moon is Illuminated
Today
Waning Crescent
Sep 24
New
Oct 1
First Quarter
Oct 8
Full
Oct 15
Last Quarter

Today's Extremes

State Highs State Lows

Community

WunderPhotos

Upload Photos

1,755,429 photos uploaded!

WunderBlogs® & News

Nearby

Snow Depth

Station Depth Elevation
No new snow has been reported.

Earthquake Activity

City Distance Mag. Time & Date
No recent earthquake activity has been reported nearby.
Minimum magnitude displayed is 2.5.

Coastal Water Temperatures

Place Temperature
No Stations Reporting

Nearby Weather Stations